METAR AND TAF INFORMATION
METAR FOR UDYZ
ADDS - METARS form results

(1112 UTC 23 January 2019)
Data provider http://aviationweather.gov/metar/data/
 
METAR text: UDYZ 231100Z 00000KT 6000 NSC 04/M06 Q1021 R09/010070 NOSIG
Conditions at: UDYZ (ZVARTNOTS , AM) observed 1100 UTC 23 January 2019
Temperature: 4.0°C (39°F)
Dewpoint: -6.0°C (21°F) [RH = 48%]
Pressure (altimeter): 30.15 inches Hg (1021.0 mb)
Winds: calm
Visibility: 4 miles ( 6 km)
Ceiling: at least 12,000 feet AGL
Clouds: sky clear below 12,000 feet AGL
Weather: no significant weather observed at this time

METAR text: UDYZ 231030Z VRB01KT 6000 NSC 03/M06 Q1021 R09/010070 NOSIG
Conditions at: UDYZ (ZVARTNOTS , AM) observed 1030 UTC 23 January 2019
Temperature: 3.0°C (37°F)
Dewpoint: -6.0°C (21°F) [RH = 52%]
Pressure (altimeter): 30.15 inches Hg (1021.0 mb)
Winds: variable direction winds at 1 MPH (1 knots; 0.5 m/s)
Visibility: 4 miles ( 6 km)
Ceiling: at least 12,000 feet AGL
Clouds: sky clear below 12,000 feet AGL
Weather: no significant weather observed at this time

Forecast for: UDYZ (ZVARTNOTS , AM)
Text: TAF UDYZ 231107Z 2312/2412 VRB04KT 6000 NSC
Forecast period: 1200 UTC 23 January 2019 to 1200 UTC 24 January 2019
Forecast type: FROM: standard forecast or significant change
Winds: variable direction winds at 5 MPH (4 knots; 2.1 m/s)
Visibility: 4 miles (6 km)
Ceiling: unknown
Clouds: missing
Weather: no significant weather forecast for this period
Text: TEMPO 2315/2406 2000 BR
Forecast period: 1500 UTC 23 January 2019 to 0600 UTC 24 January 2019
Forecast type: TEMPORARY: The following changes expected for less than half the time period
Visibility: 1.24 miles (2.00 km)
Ceiling: unknown
Clouds: missing
Weather: BR  (mist)

 AIRPORT MAP

 RUNWAY INFORMATION
Runway 09 Runway length 12629 ft Runway width 184 ft
Runway elevation 2800 ft Runway displaced threshold 0 ft Runway heading 90
Runway 27 Runway length 12629 ft Runway width 184 ft
Runway elevation 2838 ft Runway displaced threshold 0 ft Runway heading 270

 AIRPORT FREQUENCIES
Type APP Name YEREVAN AP Frequency 126 MHZ
Type ATIS Name ATIS Frequency 119.5 MHZ
Type GND Name YEREVAN GN Frequency 119 MHZ
Type TWR Name YEREVAN TW Frequency 128 MHZ

 AIRPORT NEAR NAVIGATION AIDS



Copyright © 2011 - 2018 BirgenAir Virtual Airlines. All rights reserved. Developed by Goktug Unver